Spring Mills, Pennsylvania
Current Conditions -  °F | °C
As of 12:55 AM on Friday 28 Nov 2014 (Local Time) from KUNV Reporting Station
Overcast Overcast  
Wind Chill: 21°   Ceiling: 3400
Heat Index: 29°   Visibility: 10mi
Dew Point: 24°   Wind: 9mph
Humidity: 79%   Direction: 250°WSW
Pressure: 30.11"   Gusts: NA
Location:  40.85°N, 77.57°W
Report Text: KUNV 280555Z AUTO 25008KT 10SM SCT022 BKN034 OVC041 M01/M05 A3011 RMK AO2 T10151047 10000 21015
Loading
Personal Weather Stations






























Interactive Weather Map New forecast layout! Learn more

10-Day Weather Forecast

Advertisements
Track Severe Weather on mobile